Time,TemperatureF,DewpointF,PressureIn,WindDirection,WindDirectionDegrees,WindSpeedMPH,WindSpeedGustMPH,Humidity,HourlyPrecipIn,Conditions,Clouds,dailyrainin,SoftwareType,DateUTC
2015-08-31 00:03:00,68.0,64.0,-100.00,SSW,200,3.0,7.0,87,-99.99,,,-99.99,,2015-08-31 04:03:00,
2015-08-31 00:13:00,68.0,64.0,-100.00,SSW,192,3.0,7.0,87,-99.99,,,-99.99,,2015-08-31 04:13:00,
2015-08-31 00:34:00,68.0,64.0,-100.00,SSW,192,3.0,7.0,87,-99.99,,,-99.99,,2015-08-31 04:34:00,
2015-08-31 00:44:00,68.0,64.0,-100.00,SSW,192,3.0,7.0,87,-99.99,,,-99.99,,2015-08-31 04:44:00,
2015-08-31 01:03:00,68.0,64.0,-100.00,SSW,192,3.0,7.0,87,-99.99,,,-99.99,,2015-08-31 05:03:00,
2015-08-31 01:13:00,67.0,64.0,-100.00,SSW,208,3.0,8.0,89,-99.99,,,-99.99,,2015-08-31 05:13:00,
2015-08-31 01:36:00,67.0,64.0,-100.00,SSW,208,3.0,8.0,89,-99.99,,,-99.99,,2015-08-31 05:36:00,
2015-08-31 01:44:00,67.0,64.0,-100.00,SSW,208,3.0,8.0,89,-99.99,,,-99.99,,2015-08-31 05:44:00,
2015-08-31 02:03:00,67.0,64.0,-100.00,SSW,208,3.0,8.0,89,-99.99,,,-99.99,,2015-08-31 06:03:00,
2015-08-31 02:13:00,66.0,63.0,-100.00,SSW,202,4.0,6.0,91,-99.99,,,-99.99,,2015-08-31 06:13:00,
2015-08-31 02:34:00,66.0,63.0,-100.00,SSW,202,4.0,6.0,91,-99.99,,,-99.99,,2015-08-31 06:34:00,
2015-08-31 02:44:00,66.0,63.0,-100.00,SSW,202,4.0,6.0,91,-99.99,,,-99.99,,2015-08-31 06:44:00,
2015-08-31 02:54:00,66.0,63.0,-100.00,SSW,202,4.0,6.0,91,-99.99,,,-99.99,,2015-08-31 06:54:00,
2015-08-31 03:03:00,66.0,63.0,-100.00,SSW,202,4.0,6.0,91,-99.99,,,-99.99,,2015-08-31 07:03:00,
2015-08-31 03:13:00,64.0,63.0,-100.00,SSW,192,3.0,6.0,95,-99.99,,,-99.99,,2015-08-31 07:13:00,
2015-08-31 03:33:00,64.0,63.0,-100.00,SSW,192,3.0,6.0,95,-99.99,,,-99.99,,2015-08-31 07:33:00,
2015-08-31 03:44:00,64.0,63.0,-100.00,SSW,192,3.0,6.0,95,-99.99,,,-99.99,,2015-08-31 07:44:00,
2015-08-31 03:53:00,64.0,63.0,-100.00,SSW,192,3.0,6.0,95,-99.99,,,-99.99,,2015-08-31 07:53:00,
2015-08-31 04:03:00,64.0,63.0,-100.00,SSW,192,3.0,6.0,95,-99.99,,,-99.99,,2015-08-31 08:03:00,
2015-08-31 04:34:00,65.0,63.0,-100.00,South,179,4.0,6.0,94,-99.99,,,-99.99,,2015-08-31 08:34:00,
2015-08-31 04:44:00,65.0,63.0,-100.00,South,179,4.0,6.0,94,-99.99,,,-99.99,,2015-08-31 08:44:00,
2015-08-31 04:54:00,65.0,63.0,-100.00,South,179,4.0,6.0,94,-99.99,,,-99.99,,2015-08-31 08:54:00,
2015-08-31 05:03:00,65.0,63.0,-100.00,South,179,4.0,6.0,94,-99.99,,,-99.99,,2015-08-31 09:03:00,
2015-08-31 05:12:00,65.0,63.0,-100.00,South,179,4.0,6.0,94,-99.99,,,-99.99,,2015-08-31 09:12:00,
2015-08-31 05:13:00,65.0,63.0,-100.00,SSW,196,4.0,8.0,93,-99.99,,,-99.99,,2015-08-31 09:13:00,
2015-08-31 05:36:00,65.0,63.0,-100.00,SSW,196,4.0,-999.0,93,-99.99,,,-99.99,,2015-08-31 09:36:00,
2015-08-31 05:44:00,65.0,63.0,-100.00,SSW,196,4.0,8.0,93,-99.99,,,-99.99,,2015-08-31 09:44:00,
2015-08-31 05:54:00,65.0,63.0,-100.00,SSW,196,4.0,8.0,93,-99.99,,,-99.99,,2015-08-31 09:54:00,
2015-08-31 06:03:00,65.0,63.0,-100.00,SSW,196,4.0,8.0,93,-99.99,,,-99.99,,2015-08-31 10:03:00,
2015-08-31 06:13:00,62.0,61.0,-100.00,SSE,168,4.0,6.0,95,-99.99,,,-99.99,,2015-08-31 10:13:00,
2015-08-31 06:33:00,62.0,61.0,-100.00,SSE,168,4.0,6.0,95,-99.99,,,-99.99,,2015-08-31 10:33:00,
2015-08-31 06:44:00,62.0,61.0,-100.00,SSE,168,4.0,6.0,95,-99.99,,,-99.99,,2015-08-31 10:44:00,
2015-08-31 06:54:00,62.0,61.0,-100.00,SSE,168,4.0,6.0,95,-99.99,,,-99.99,,2015-08-31 10:54:00,
2015-08-31 07:04:00,62.0,61.0,-100.00,SSE,168,4.0,6.0,95,-99.99,,,-99.99,,2015-08-31 11:04:00,
2015-08-31 07:13:00,62.0,61.0,-100.00,South,179,4.0,8.0,96,-99.99,,,-99.99,,2015-08-31 11:13:00,
2015-08-31 07:34:00,62.0,61.0,-100.00,South,179,4.0,8.0,96,-99.99,,,-99.99,,2015-08-31 11:34:00,
2015-08-31 07:44:00,62.0,61.0,-100.00,South,179,4.0,8.0,96,-99.99,,,-99.99,,2015-08-31 11:44:00,
2015-08-31 07:54:00,62.0,61.0,-100.00,South,179,4.0,8.0,96,-99.99,,,-99.99,,2015-08-31 11:54:00,
2015-08-31 08:04:00,62.0,61.0,-100.00,South,179,4.0,8.0,96,-99.99,,,-99.99,,2015-08-31 12:04:00,
2015-08-31 08:13:00,62.0,61.0,-100.00,South,172,4.0,6.0,96,-99.99,,,-99.99,,2015-08-31 12:13:00,
2015-08-31 08:34:00,62.0,61.0,-100.00,South,172,4.0,6.0,96,-99.99,,,-99.99,,2015-08-31 12:34:00,
2015-08-31 08:44:00,62.0,61.0,-100.00,South,172,4.0,6.0,96,-99.99,,,-99.99,,2015-08-31 12:44:00,
2015-08-31 08:54:00,62.0,61.0,-100.00,South,172,4.0,6.0,96,-99.99,,,-99.99,,2015-08-31 12:54:00,
2015-08-31 09:04:00,62.0,61.0,-100.00,South,172,4.0,6.0,96,-99.99,,,-99.99,,2015-08-31 13:04:00,
2015-08-31 09:13:00,66.0,63.0,-100.00,SSW,194,3.0,7.0,89,-99.99,,,-99.99,,2015-08-31 13:13:00,
2015-08-31 09:34:00,66.0,63.0,-100.00,SSW,194,3.0,7.0,89,-99.99,,,-99.99,,2015-08-31 13:34:00,
2015-08-31 09:44:00,66.0,63.0,-100.00,SSW,194,3.0,7.0,89,-99.99,,,-99.99,,2015-08-31 13:44:00,
2015-08-31 09:54:00,66.0,63.0,-100.00,SSW,194,3.0,7.0,89,-99.99,,,-99.99,,2015-08-31 13:54:00,
2015-08-31 10:03:00,66.0,63.0,-100.00,SSW,194,3.0,7.0,89,-99.99,,,-99.99,,2015-08-31 14:03:00,
2015-08-31 10:13:00,71.0,64.0,-100.00,SSW,193,5.0,9.0,78,-99.99,,,-99.99,,2015-08-31 14:13:00,
2015-08-31 10:44:00,71.0,64.0,-100.00,SSW,193,5.0,9.0,78,-99.99,,,-99.99,,2015-08-31 14:44:00,
2015-08-31 10:54:00,71.0,64.0,-100.00,SSW,193,5.0,9.0,78,-99.99,,,-99.99,,2015-08-31 14:54:00,
2015-08-31 11:03:00,71.0,64.0,-100.00,SSW,193,5.0,9.0,78,-99.99,,,-99.99,,2015-08-31 15:03:00,
2015-08-31 11:13:00,76.0,62.0,-100.00,SSW,192,7.0,12.0,63,-99.99,,,-99.99,,2015-08-31 15:13:00,
2015-08-31 11:34:00,76.0,62.0,-100.00,SSW,192,7.0,12.0,63,-99.99,,,-99.99,,2015-08-31 15:34:00,
2015-08-31 11:44:00,76.0,62.0,-100.00,SSW,192,7.0,12.0,63,-99.99,,,-99.99,,2015-08-31 15:44:00,
2015-08-31 11:54:00,76.0,62.0,-100.00,SSW,192,7.0,12.0,63,-99.99,,,-99.99,,2015-08-31 15:54:00,
2015-08-31 12:04:00,76.0,62.0,-100.00,SSW,192,7.0,12.0,63,-99.99,,,-99.99,,2015-08-31 16:04:00,
2015-08-31 12:36:00,83.0,64.0,-100.00,SSW,195,5.0,12.0,53,-99.99,,,-99.99,,2015-08-31 16:36:00,
2015-08-31 12:44:00,83.0,64.0,-100.00,SSW,195,5.0,12.0,53,-99.99,,,-99.99,,2015-08-31 16:44:00,
2015-08-31 12:54:00,83.0,64.0,-100.00,SSW,195,5.0,12.0,53,-99.99,,,-99.99,,2015-08-31 16:54:00,
2015-08-31 13:06:00,83.0,64.0,-100.00,SSW,195,5.0,12.0,53,-99.99,,,-99.99,,2015-08-31 17:06:00,
2015-08-31 13:13:00,86.0,63.0,-100.00,South,183,7.0,12.0,47,-99.99,,,-99.99,,2015-08-31 17:13:00,
2015-08-31 13:54:00,86.0,63.0,-100.00,South,183,7.0,12.0,47,-99.99,,,-99.99,,2015-08-31 17:54:00,
2015-08-31 14:04:00,86.0,63.0,-100.00,South,183,7.0,12.0,47,-99.99,,,-99.99,,2015-08-31 18:04:00,
2015-08-31 14:13:00,90.0,64.0,-100.00,SSW,198,6.0,13.0,42,-99.99,,,-99.99,,2015-08-31 18:13:00,
2015-08-31 14:37:00,90.0,64.0,-100.00,SSW,198,6.0,13.0,42,-99.99,,,-99.99,,2015-08-31 18:37:00,
2015-08-31 14:55:00,90.0,64.0,-100.00,SSW,198,6.0,13.0,42,-99.99,,,-99.99,,2015-08-31 18:55:00,
2015-08-31 15:13:00,92.0,61.0,-100.00,SSW,196,7.0,12.0,36,-99.99,,,-99.99,,2015-08-31 19:13:00,
2015-08-31 15:44:00,92.0,61.0,-100.00,SSW,196,7.0,12.0,36,-99.99,,,-99.99,,2015-08-31 19:44:00,
2015-08-31 15:55:00,92.0,61.0,-100.00,SSW,196,7.0,12.0,36,-99.99,,,-99.99,,2015-08-31 19:55:00,
2015-08-31 16:04:00,92.0,61.0,-100.00,SSW,196,7.0,12.0,36,-99.99,,,-99.99,,2015-08-31 20:04:00,
2015-08-31 16:13:00,93.0,61.0,-100.00,SSW,202,6.0,14.0,35,-99.99,,,-99.99,,2015-08-31 20:13:00,
2015-08-31 16:34:00,93.0,61.0,-100.00,SSW,202,6.0,14.0,35,-99.99,,,-99.99,,2015-08-31 20:34:00,
2015-08-31 16:44:00,93.0,61.0,-100.00,SSW,202,6.0,14.0,35,-99.99,,,-99.99,,2015-08-31 20:44:00,
2015-08-31 16:54:00,93.0,61.0,-100.00,SSW,202,6.0,14.0,35,-99.99,,,-99.99,,2015-08-31 20:54:00,
2015-08-31 17:34:00,91.0,56.0,-100.00,SSW,213,7.0,14.0,31,-99.99,,,-99.99,,2015-08-31 21:34:00,
2015-08-31 17:44:00,91.0,56.0,-100.00,SSW,213,7.0,14.0,31,-99.99,,,-99.99,,2015-08-31 21:44:00,
2015-08-31 17:54:00,91.0,56.0,-100.00,SSW,213,7.0,14.0,31,-99.99,,,-99.99,,2015-08-31 21:54:00,
2015-08-31 18:03:00,91.0,56.0,-100.00,SSW,213,7.0,14.0,31,-99.99,,,-99.99,,2015-08-31 22:03:00,
2015-08-31 18:13:00,89.0,59.0,-100.00,South,183,7.0,14.0,37,-99.99,,,-99.99,,2015-08-31 22:13:00,
2015-08-31 18:34:00,89.0,59.0,-100.00,South,183,7.0,14.0,37,-99.99,,,-99.99,,2015-08-31 22:34:00,
2015-08-31 18:44:00,89.0,59.0,-100.00,South,183,7.0,14.0,37,-99.99,,,-99.99,,2015-08-31 22:44:00,
2015-08-31 18:54:00,89.0,59.0,-100.00,South,183,7.0,14.0,37,-99.99,,,-99.99,,2015-08-31 22:54:00,
2015-08-31 19:03:00,89.0,59.0,-100.00,South,183,7.0,14.0,37,-99.99,,,-99.99,,2015-08-31 23:03:00,
2015-08-31 19:13:00,85.0,60.0,-100.00,SSW,193,4.0,11.0,43,-99.99,,,-99.99,,2015-08-31 23:13:00,
2015-08-31 19:34:00,85.0,60.0,-100.00,SSW,193,4.0,11.0,43,-99.99,,,-99.99,,2015-08-31 23:34:00,
2015-08-31 19:44:00,85.0,60.0,-100.00,SSW,193,4.0,11.0,43,-99.99,,,-99.99,,2015-08-31 23:44:00,
2015-08-31 19:54:00,85.0,60.0,-100.00,SSW,193,4.0,11.0,43,-99.99,,,-99.99,,2015-08-31 23:54:00,
2015-08-31 20:03:00,85.0,60.0,-100.00,SSW,193,4.0,11.0,43,-99.99,,,-99.99,,2015-09-01 00:03:00,
2015-08-31 20:13:00,78.0,61.0,-100.00,SSW,194,5.0,12.0,56,-99.99,,,-99.99,,2015-09-01 00:13:00,
2015-08-31 20:34:00,78.0,61.0,-100.00,SSW,194,5.0,12.0,56,-99.99,,,-99.99,,2015-09-01 00:34:00,
2015-08-31 20:44:00,78.0,61.0,-100.00,SSW,194,5.0,12.0,56,-99.99,,,-99.99,,2015-09-01 00:44:00,
2015-08-31 20:54:00,78.0,61.0,-100.00,SSW,194,5.0,12.0,56,-99.99,,,-99.99,,2015-09-01 00:54:00,
2015-08-31 21:03:00,78.0,61.0,-100.00,SSW,194,5.0,12.0,56,-99.99,,,-99.99,,2015-09-01 01:03:00,
2015-08-31 21:13:00,74.0,61.0,-100.00,South,186,4.0,12.0,65,-99.99,,,-99.99,,2015-09-01 01:13:00,
2015-08-31 21:34:00,74.0,61.0,-100.00,South,186,4.0,12.0,65,-99.99,,,-99.99,,2015-09-01 01:34:00,
2015-08-31 21:44:00,74.0,61.0,-100.00,South,186,4.0,12.0,65,-99.99,,,-99.99,,2015-09-01 01:44:00,
2015-08-31 21:53:00,74.0,61.0,-100.00,South,186,4.0,12.0,65,-99.99,,,-99.99,,2015-09-01 01:53:00,
2015-08-31 22:03:00,74.0,61.0,-100.00,South,186,4.0,12.0,65,-99.99,,,-99.99,,2015-09-01 02:03:00,
2015-08-31 22:33:00,74.0,64.0,-100.00,South,191,6.0,11.0,71,-99.99,,,-99.99,,2015-09-01 02:33:00,
2015-08-31 22:44:00,74.0,64.0,-100.00,South,191,6.0,11.0,71,-99.99,,,-99.99,,2015-09-01 02:44:00,
2015-08-31 22:53:00,74.0,64.0,-100.00,South,191,6.0,11.0,71,-99.99,,,-99.99,,2015-09-01 02:53:00,
2015-08-31 23:03:00,74.0,64.0,-100.00,South,191,6.0,11.0,71,-99.99,,,-99.99,,2015-09-01 03:03:00,
2015-08-31 23:12:00,74.0,64.0,-100.00,South,191,6.0,11.0,71,-99.99,,,-99.99,,2015-09-01 03:12:00,